createdAt,value
2018-03-02T00:00:15.813Z,99198.06
2018-03-02T00:01:18.284Z,99195.60
2018-03-02T00:02:20.790Z,99201.19
2018-03-02T00:03:23.273Z,99203.13
2018-03-02T00:04:25.758Z,99204.91
2018-03-02T00:05:28.239Z,99198.90
2018-03-02T00:06:30.719Z,99205.75
2018-03-02T00:07:33.231Z,99201.98
2018-03-02T00:08:35.695Z,99199.47
2018-03-02T00:09:38.178Z,99194.34
2018-03-02T00:10:40.648Z,99191.94
2018-03-02T00:11:43.128Z,99195.31
2018-03-02T00:12:45.611Z,99195.25
2018-03-02T00:13:48.096Z,99190.52
2018-03-02T00:14:50.582Z,99189.72
2018-03-02T00:15:53.071Z,99190.06
2018-03-02T00:16:55.557Z,99184.53
2018-03-02T00:17:58.039Z,99185.45
2018-03-02T00:19:00.522Z,99184.57
2018-03-02T00:20:03.014Z,99177.89
2018-03-02T00:21:05.490Z,99175.67
2018-03-02T00:22:08.001Z,99177.16
2018-03-02T00:23:10.560Z,99173.00
2018-03-02T00:24:13.020Z,99167.17
2018-03-02T00:25:15.483Z,99161.00
2018-03-02T00:26:17.972Z,99162.42
2018-03-02T00:27:20.448Z,99161.53
2018-03-02T00:28:23.012Z,99169.80
2018-03-02T00:29:25.502Z,99154.61
2018-03-02T00:30:27.998Z,99165.84
2018-03-02T00:31:30.482Z,99158.08
2018-03-02T00:32:32.952Z,99160.02
2018-03-02T00:33:35.444Z,99154.77
2018-03-02T00:34:37.911Z,99148.59
2018-03-02T00:35:40.383Z,99148.36
2018-03-02T00:36:42.859Z,99154.47
2018-03-02T00:37:45.346Z,99151.16
2018-03-02T00:38:47.863Z,99151.38
2018-03-02T00:39:50.384Z,99146.47
2018-03-02T00:40:52.848Z,99149.78
2018-03-02T00:41:55.330Z,99145.09
2018-03-02T00:42:57.826Z,99149.95
2018-03-02T00:44:00.329Z,99147.22
2018-03-02T00:45:02.813Z,99144.88
2018-03-02T00:46:05.293Z,99138.77
2018-03-02T00:47:07.781Z,99141.49
2018-03-02T00:48:10.328Z,99136.48
2018-03-02T00:49:12.818Z,99135.09
2018-03-02T00:50:15.311Z,99138.16
2018-03-02T00:51:17.800Z,99136.83
2018-03-02T00:52:20.279Z,99136.12
2018-03-02T00:53:22.743Z,99128.56
2018-03-02T00:54:25.239Z,99128.12
2018-03-02T00:55:27.711Z,99134.67
2018-03-02T00:56:30.230Z,99128.48
2018-03-02T00:57:32.710Z,99122.24
2018-03-02T00:58:35.809Z,99120.47
2018-03-02T00:59:38.320Z,99126.71
2018-03-02T01:00:40.791Z,99127.28
2018-03-02T01:01:43.286Z,99127.46
2018-03-02T01:02:45.779Z,99125.87
2018-03-02T01:03:48.267Z,99114.23
2018-03-02T01:04:50.773Z,99126.27
2018-03-02T01:05:53.247Z,99122.69
2018-03-02T01:06:55.728Z,99118.48
2018-03-02T01:07:58.392Z,99123.56
2018-03-02T01:09:00.885Z,99118.16
2018-03-02T01:10:03.401Z,99119.26
2018-03-02T01:11:05.880Z,99117.41
2018-03-02T01:12:08.372Z,99113.20
2018-03-02T01:13:10.847Z,99120.36
2018-03-02T01:14:13.331Z,99109.91
2018-03-02T01:15:15.833Z,99108.89
2018-03-02T01:16:18.371Z,99107.08
2018-03-02T01:17:20.853Z,99109.91
2018-03-02T01:18:23.341Z,99108.06
2018-03-02T01:19:25.874Z,99103.68
2018-03-02T01:20:28.383Z,99102.03
2018-03-02T01:21:30.868Z,99103.59
2018-03-02T01:22:33.349Z,99105.30
2018-03-02T01:23:35.837Z,99108.44
2018-03-02T01:24:38.329Z,99100.54
2018-03-02T01:25:40.838Z,99102.76
2018-03-02T01:26:43.312Z,99107.08
2018-03-02T01:27:45.795Z,99096.25
2018-03-02T01:28:48.264Z,99102.01
2018-03-02T01:29:50.746Z,99102.58
2018-03-02T01:30:53.286Z,99095.77
2018-03-02T01:31:55.759Z,99094.45
2018-03-02T01:32:58.255Z,99098.25
2018-03-02T01:34:00.737Z,99100.02
2018-03-02T01:35:03.207Z,99091.22
2018-03-02T01:36:05.725Z,99095.29
2018-03-02T01:37:08.220Z,99096.56
2018-03-02T01:38:10.686Z,99090.73
2018-03-02T01:39:13.172Z,99089.09
2018-03-02T01:40:15.635Z,99089.59
2018-03-02T01:41:18.141Z,99090.69
2018-03-02T01:42:20.628Z,99086.08
2018-03-02T01:43:23.094Z,99093.11
2018-03-02T01:44:25.583Z,99085.59
2018-03-02T01:45:28.250Z,99086.11
2018-03-02T01:46:30.750Z,99085.56
2018-03-02T01:47:33.233Z,99086.66
2018-03-02T01:48:36.434Z,99082.84
2018-03-02T01:49:38.925Z,99084.34
2018-03-02T01:50:41.405Z,99083.55
2018-03-02T01:51:49.804Z,99076.13
2018-03-02T01:52:52.295Z,99075.47
2018-03-02T01:53:54.770Z,99077.91
2018-03-02T01:54:57.332Z,99076.78
2018-03-02T01:55:59.812Z,99074.45
2018-03-02T01:57:02.316Z,99076.22
2018-03-02T01:58:04.808Z,99075.52
2018-03-02T01:59:07.275Z,99073.44
2018-03-02T02:00:09.751Z,99083.70
2018-03-02T02:01:12.233Z,99081.27
2018-03-02T02:02:14.738Z,99075.42
2018-03-02T02:03:17.225Z,99068.92
2018-03-02T02:04:19.725Z,99075.02
2018-03-02T02:05:22.219Z,99073.25
2018-03-02T02:06:24.697Z,99068.05
2018-03-02T02:07:27.188Z,99072.91
2018-03-02T02:08:29.670Z,99068.70
2018-03-02T02:09:32.165Z,99069.41
2018-03-02T02:10:34.634Z,99077.41
2018-03-02T02:11:37.107Z,99069.49
2018-03-02T02:12:39.606Z,99070.17
2018-03-02T02:13:42.093Z,99070.92
2018-03-02T02:14:44.583Z,99071.80
2018-03-02T02:15:47.056Z,99068.78
2018-03-02T02:16:49.541Z,99070.11
2018-03-02T02:17:52.048Z,99062.23
2018-03-02T02:18:54.534Z,99062.91
2018-03-02T02:19:57.007Z,99063.00
2018-03-02T02:20:59.475Z,99055.70
2018-03-02T02:22:01.957Z,99057.77
2018-03-02T02:23:04.451Z,99066.13
2018-03-02T02:24:06.919Z,99069.80
2018-03-02T02:25:09.387Z,99065.03
2018-03-02T02:26:11.851Z,99059.97
2018-03-02T02:27:14.336Z,99054.36
2018-03-02T02:28:16.830Z,99054.28
2018-03-02T02:29:19.317Z,99054.28
2018-03-02T02:30:21.800Z,99050.56
2018-03-02T02:31:24.290Z,99056.45
2018-03-02T02:32:26.761Z,99050.96
2018-03-02T02:33:29.278Z,99057.73
2018-03-02T02:34:31.759Z,99052.91
2018-03-02T02:35:34.254Z,99041.98
2018-03-02T02:36:36.741Z,99045.74
2018-03-02T02:37:39.225Z,99044.55
2018-03-02T02:38:41.729Z,99039.71
2018-03-02T02:39:44.204Z,99040.11
2018-03-02T02:40:46.683Z,99041.02
2018-03-02T02:41:49.169Z,99042.52
2018-03-02T02:42:51.644Z,99036.58
2018-03-02T02:43:54.131Z,99039.86
2018-03-02T02:44:56.621Z,99038.44
2018-03-02T02:45:59.098Z,99043.92
2018-03-02T02:47:01.568Z,99039.19
2018-03-02T02:48:04.032Z,99034.41
2018-03-02T02:49:06.541Z,99026.47
2018-03-02T02:50:09.011Z,99027.97
2018-03-02T02:51:11.479Z,99018.50
2018-03-02T02:52:13.968Z,99022.56
2018-03-02T02:53:16.450Z,99016.81
2018-03-02T02:54:18.951Z,99023.38
2018-03-02T02:55:21.441Z,99014.75
2018-03-02T02:56:23.913Z,99020.98
2018-03-02T02:57:26.388Z,99017.36
2018-03-02T02:58:28.854Z,99015.59
2018-03-02T02:59:31.377Z,99020.17
2018-03-02T03:00:33.846Z,99022.44
2018-03-02T03:01:36.330Z,99020.05
2018-03-02T03:02:38.820Z,99020.48
2018-03-02T03:03:41.301Z,99014.33
2018-03-02T03:04:43.801Z,99010.16
2018-03-02T03:05:46.271Z,99006.53
2018-03-02T03:06:48.754Z,99013.30
2018-03-02T03:07:51.226Z,99014.35
2018-03-02T03:08:53.698Z,99015.77
2018-03-02T03:09:56.191Z,99012.48
2018-03-02T03:10:58.677Z,99022.08
2018-03-02T03:12:01.157Z,99016.20
2018-03-02T03:13:03.628Z,99017.09
2018-03-02T03:14:06.109Z,99020.38
2018-03-02T03:15:08.614Z,99007.19
2018-03-02T03:16:11.082Z,99015.95
2018-03-02T03:17:13.552Z,99012.72
2018-03-02T03:18:16.030Z,99007.12
2018-03-02T03:19:18.519Z,99011.19
2018-03-02T03:20:21.033Z,99001.68
2018-03-02T03:21:23.517Z,99005.13
2018-03-02T03:22:25.983Z,99001.90
2018-03-02T03:23:28.474Z,98997.27
2018-03-02T03:24:30.948Z,98998.16
2018-03-02T03:25:33.460Z,98994.17
2018-03-02T03:26:35.956Z,98994.30
2018-03-02T03:27:38.427Z,98990.72
2018-03-02T03:28:40.895Z,98994.19
2018-03-02T03:29:43.376Z,98991.80
2018-03-02T03:30:45.876Z,98993.78
2018-03-02T03:31:48.384Z,98993.59
2018-03-02T03:32:50.856Z,98993.78
2018-03-02T03:33:53.423Z,98993.94
2018-03-02T03:34:55.913Z,98993.67
2018-03-02T03:35:58.449Z,98993.80
2018-03-02T03:37:00.921Z,98991.97
2018-03-02T03:38:03.414Z,98984.27
2018-03-02T03:39:05.901Z,98985.11
2018-03-02T03:40:08.373Z,98990.23
2018-03-02T03:41:10.857Z,98991.20
2018-03-02T03:42:13.338Z,98986.34
2018-03-02T03:43:15.816Z,98990.92
2018-03-02T03:44:18.291Z,98984.06
2018-03-02T03:45:20.785Z,98983.20
2018-03-02T03:46:23.275Z,98984.35
2018-03-02T03:47:25.742Z,98982.94
2018-03-02T03:48:28.224Z,98977.23
2018-03-02T03:49:30.713Z,98974.22
2018-03-02T03:50:33.200Z,98974.72
2018-03-02T03:51:35.708Z,98970.95
2018-03-02T03:52:38.176Z,98970.27
2018-03-02T03:53:40.638Z,98965.09
2018-03-02T03:54:43.133Z,98963.64
2018-03-02T03:55:45.619Z,98965.72
2018-03-02T03:56:48.104Z,98966.00
2018-03-02T03:57:50.582Z,98958.48
2018-03-02T03:58:53.076Z,98963.13
2018-03-02T03:59:55.561Z,98956.58
2018-03-02T04:00:58.052Z,98944.06
2018-03-02T04:02:00.545Z,98957.59
2018-03-02T04:03:03.023Z,98958.34
2018-03-02T04:04:05.494Z,98952.48
2018-03-02T04:05:07.974Z,98960.62
2018-03-02T04:06:10.450Z,98960.60
2018-03-02T04:07:12.956Z,98963.30
2018-03-02T04:08:15.428Z,98956.73
2018-03-02T04:09:17.906Z,98961.76
2018-03-02T04:10:20.397Z,98960.61
2018-03-02T04:11:22.889Z,98960.65
2018-03-02T04:12:25.383Z,98951.44
2018-03-02T04:13:27.872Z,98957.11
2018-03-02T04:14:30.351Z,98952.20
2018-03-02T04:15:32.834Z,98949.41
2018-03-02T04:16:35.372Z,98952.55
2018-03-02T04:17:37.930Z,98944.39
2018-03-02T04:18:40.627Z,98938.06
2018-03-02T04:19:43.104Z,98944.27
2018-03-02T04:20:45.616Z,98931.66
2018-03-02T04:21:48.105Z,98934.14
2018-03-02T04:22:50.599Z,98933.52
2018-03-02T04:23:53.092Z,98927.75
2018-03-02T04:24:55.585Z,98929.44
2018-03-02T04:25:58.073Z,98933.06
2018-03-02T04:27:00.557Z,98928.29
2018-03-02T04:28:03.072Z,98932.69
2018-03-02T04:29:05.539Z,98930.66
2018-03-02T04:30:08.021Z,98928.63
2018-03-02T04:31:10.505Z,98926.86
2018-03-02T04:32:12.994Z,98925.53
2018-03-02T04:33:15.527Z,98922.69
2018-03-02T04:34:18.013Z,98923.69
2018-03-02T04:35:20.483Z,98919.66
2018-03-02T04:36:22.955Z,98921.62
2018-03-02T04:37:25.422Z,98917.41
2018-03-02T04:38:27.921Z,98918.24
2018-03-02T04:39:30.399Z,98915.47
2018-03-02T04:40:32.880Z,98921.58
2018-03-02T04:41:35.360Z,98916.30
2018-03-02T04:42:37.827Z,98921.66
2018-03-02T04:43:40.332Z,98920.24
2018-03-02T04:44:42.838Z,98909.92
2018-03-02T04:45:45.320Z,98919.48
2018-03-02T04:46:47.804Z,98915.98
2018-03-02T04:47:50.270Z,98909.27
2018-03-02T04:48:52.769Z,98915.30
2018-03-02T04:49:55.252Z,98916.55
2018-03-02T04:50:57.715Z,98915.72
2018-03-02T04:52:00.205Z,98920.55
2018-03-02T04:53:02.689Z,98918.13
2018-03-02T04:54:05.194Z,98920.42
2018-03-02T04:55:07.675Z,98919.34
2018-03-02T04:56:10.146Z,98913.95
2018-03-02T04:57:12.616Z,98913.29
2018-03-02T04:58:15.093Z,98912.02
2018-03-02T04:59:17.605Z,98911.97
2018-03-02T05:00:20.115Z,98914.06
2018-03-02T05:01:22.601Z,98910.75
2018-03-02T05:02:25.067Z,98905.16
2018-03-02T05:03:27.557Z,98902.54
2018-03-02T05:04:30.063Z,98894.47
2018-03-02T05:05:32.534Z,98900.59
2018-03-02T05:06:35.017Z,98892.55
2018-03-02T05:07:37.510Z,98890.31
2018-03-02T05:08:39.992Z,98889.86
2018-03-02T05:09:42.487Z,98894.41
2018-03-02T05:10:44.980Z,98888.92
2018-03-02T05:11:47.467Z,98885.27
2018-03-02T05:12:49.943Z,98884.69
2018-03-02T05:13:52.409Z,98882.16
2018-03-02T05:14:54.915Z,98884.47
2018-03-02T05:15:57.379Z,98886.97
2018-03-02T05:16:59.853Z,98888.87
2018-03-02T05:18:02.319Z,98884.91
2018-03-02T05:19:04.804Z,98885.84
2018-03-02T05:20:07.315Z,98875.80
2018-03-02T05:21:09.783Z,98883.20
2018-03-02T05:22:12.281Z,98875.50
2018-03-02T05:23:14.752Z,98872.83
2018-03-02T05:24:17.227Z,98883.16
2018-03-02T05:25:19.753Z,98880.91
2018-03-02T05:26:22.260Z,98875.34
2018-03-02T05:27:24.734Z,98875.84
2018-03-02T05:28:27.233Z,98878.33
2018-03-02T05:29:29.699Z,98872.23
2018-03-02T05:30:32.205Z,98876.34
2018-03-02T05:31:34.700Z,98881.91
2018-03-02T05:32:37.171Z,98882.06
2018-03-02T05:33:39.652Z,98878.50
2018-03-02T05:34:42.111Z,98876.08
2018-03-02T05:35:44.621Z,98879.52
2018-03-02T05:36:47.107Z,98869.41
2018-03-02T05:37:49.581Z,98868.88
2018-03-02T05:38:52.069Z,98879.71
2018-03-02T05:39:54.544Z,98872.13
2018-03-02T05:40:57.035Z,98869.56
2018-03-02T05:41:59.541Z,98865.87
2018-03-02T05:43:01.999Z,98864.32
2018-03-02T05:44:04.477Z,98868.62
2018-03-02T05:45:06.946Z,98862.52
2018-03-02T05:46:09.427Z,98863.49
2018-03-02T05:47:11.953Z,98863.96
2018-03-02T05:48:14.470Z,98861.98
2018-03-02T05:49:16.949Z,98864.69
2018-03-02T05:50:19.422Z,98861.91
2018-03-02T05:51:21.932Z,98861.42
2018-03-02T05:52:24.417Z,98866.30
2018-03-02T05:53:26.883Z,98863.05
2018-03-02T05:54:29.369Z,98859.66
2018-03-02T05:55:31.861Z,98863.12
2018-03-02T05:56:34.381Z,98860.08
2018-03-02T05:57:36.842Z,98862.13
2018-03-02T05:58:39.351Z,98859.13
2018-03-02T05:59:41.826Z,98859.89
2018-03-02T06:00:44.282Z,98864.16
2018-03-02T06:01:46.796Z,98862.54
2018-03-02T06:02:49.333Z,98863.59
2018-03-02T06:03:51.817Z,98860.85
2018-03-02T06:04:54.276Z,98862.91
2018-03-02T06:05:56.945Z,98856.56
2018-03-02T06:06:59.492Z,98855.66
2018-03-02T06:08:01.967Z,98856.70
2018-03-02T06:09:04.494Z,98858.47
2018-03-02T06:10:07.001Z,98856.34
2018-03-02T06:11:09.482Z,98852.27
2018-03-02T06:12:11.986Z,98854.36
2018-03-02T06:13:14.473Z,98854.53
2018-03-02T06:14:16.938Z,98850.17
2018-03-02T06:15:19.416Z,98852.66
2018-03-02T06:16:21.907Z,98850.24
2018-03-02T06:17:24.421Z,98857.10
2018-03-02T06:18:26.892Z,98851.33
2018-03-02T06:19:29.361Z,98846.55
2018-03-02T06:20:31.831Z,98843.34
2018-03-02T06:21:34.328Z,98850.88
2018-03-02T06:22:36.826Z,98847.09
2018-03-02T06:23:39.290Z,98842.68
2018-03-02T06:24:41.759Z,98842.42
2018-03-02T06:25:44.231Z,98838.38
2018-03-02T06:26:46.715Z,98842.28
2018-03-02T06:27:49.256Z,98838.74
2018-03-02T06:28:51.723Z,98844.05
2018-03-02T06:29:54.206Z,98843.00
2018-03-02T06:30:56.679Z,98842.76
2018-03-02T06:31:59.171Z,98842.36
2018-03-02T06:33:01.659Z,98843.05
2018-03-02T06:34:04.161Z,98849.19
2018-03-02T06:35:06.621Z,98844.39
2018-03-02T06:36:09.109Z,98841.94
2018-03-02T06:37:11.579Z,98842.16
2018-03-02T06:38:14.089Z,98841.83
2018-03-02T06:39:16.579Z,98838.07
2018-03-02T06:40:19.067Z,98834.13
2018-03-02T06:41:21.543Z,98836.05
2018-03-02T06:42:24.015Z,98829.70
2018-03-02T06:43:26.513Z,98829.48
2018-03-02T06:44:28.989Z,98829.45
2018-03-02T06:45:31.530Z,98827.86
2018-03-02T06:46:33.999Z,98840.16
2018-03-02T06:47:36.468Z,98838.94
2018-03-02T06:48:39.019Z,98836.12
2018-03-02T06:49:41.500Z,98838.00
2018-03-02T06:50:43.993Z,98843.02
2018-03-02T06:51:46.480Z,98845.50
2018-03-02T06:52:48.956Z,98839.72
2018-03-02T06:53:51.469Z,98838.81
2018-03-02T06:54:53.939Z,98843.47
2018-03-02T06:55:56.408Z,98840.51
2018-03-02T06:56:58.896Z,98842.60
2018-03-02T06:58:01.381Z,98843.59
2018-03-02T06:59:03.864Z,98841.03
2018-03-02T07:00:06.331Z,98842.69
2018-03-02T07:01:08.817Z,98841.22
2018-03-02T07:02:11.305Z,98840.74
2018-03-02T07:03:13.788Z,98837.67
2018-03-02T07:04:16.335Z,98830.92
2018-03-02T07:05:18.808Z,98833.30
2018-03-02T07:06:21.278Z,98833.73
2018-03-02T07:07:23.769Z,98831.48
2018-03-02T07:08:26.265Z,98827.88
2018-03-02T07:09:28.765Z,98829.44
2018-03-02T07:10:31.241Z,98831.20
2018-03-02T07:11:33.719Z,98836.44
2018-03-02T07:12:36.210Z,98833.45
2018-03-02T07:13:38.679Z,98830.84
2018-03-02T07:14:41.181Z,98834.35
2018-03-02T07:15:43.665Z,98830.38
2018-03-02T07:16:46.138Z,98831.43
2018-03-02T07:17:48.702Z,98829.41
2018-03-02T07:18:51.216Z,98828.18
2018-03-02T07:19:53.726Z,98828.14
2018-03-02T07:20:56.182Z,98826.12
2018-03-02T07:21:58.673Z,98831.53
2018-03-02T07:23:01.148Z,98824.42
2018-03-02T07:24:03.641Z,98825.04
2018-03-02T07:25:06.169Z,98826.12
2018-03-02T07:26:08.654Z,98825.47
2018-03-02T07:27:11.150Z,98820.37
2018-03-02T07:28:13.678Z,98825.50
2018-03-02T07:29:16.243Z,98829.23
2018-03-02T07:30:18.831Z,98825.08
2018-03-02T07:31:21.307Z,98830.13
2018-03-02T07:32:23.787Z,98835.28
2018-03-02T07:33:26.272Z,98830.56
2018-03-02T07:34:28.769Z,98828.65
2018-03-02T07:35:31.264Z,98834.79
2018-03-02T07:36:33.739Z,98834.23
2018-03-02T07:37:36.258Z,98830.91
2018-03-02T07:38:38.797Z,98834.58
2018-03-02T07:39:41.286Z,98828.80
2018-03-02T07:40:43.794Z,98829.91
2018-03-02T07:41:46.329Z,98835.37
2018-03-02T07:42:48.816Z,98827.64
2018-03-02T07:43:51.308Z,98836.02
2018-03-02T07:44:53.784Z,98831.62
2018-03-02T07:45:56.306Z,98826.81
2018-03-02T07:46:58.787Z,98834.20
2018-03-02T07:48:01.260Z,98829.05
2018-03-02T07:49:03.768Z,98826.09
2018-03-02T07:50:06.249Z,98821.48
2018-03-02T07:51:08.735Z,98822.81
2018-03-02T07:52:11.222Z,98820.08
2018-03-02T07:53:13.702Z,98820.84
2018-03-02T07:54:16.191Z,98814.83
2018-03-02T07:55:18.911Z,98816.92
2018-03-02T07:56:21.442Z,98813.49
2018-03-02T07:57:24.040Z,98817.16
2018-03-02T07:58:26.533Z,98819.00
2018-03-02T07:59:29.020Z,98815.16
2018-03-02T08:00:31.505Z,98813.16
2018-03-02T08:01:33.990Z,98814.45
2018-03-02T08:02:36.489Z,98816.90
2018-03-02T08:03:38.971Z,98809.88
2018-03-02T08:04:41.460Z,98809.42
2018-03-02T08:05:44.081Z,98808.18
2018-03-02T08:06:46.585Z,98802.86
2018-03-02T08:07:49.082Z,98814.59
2018-03-02T08:08:51.555Z,98810.20
2018-03-02T08:09:54.048Z,98812.91
2018-03-02T08:10:56.527Z,98810.34
2018-03-02T08:11:59.033Z,98805.95
2018-03-02T08:13:01.514Z,98809.30
2018-03-02T08:14:04.005Z,98807.45
2018-03-02T08:15:06.480Z,98804.11
2018-03-02T08:16:08.962Z,98803.81
2018-03-02T08:17:11.451Z,98801.30
2018-03-02T08:18:13.950Z,98797.58
2018-03-02T08:19:16.418Z,98803.61
2018-03-02T08:20:18.917Z,98802.08
2018-03-02T08:21:21.421Z,98798.84
2018-03-02T08:22:23.980Z,98807.69
2018-03-02T08:23:26.457Z,98806.07
2018-03-02T08:24:28.955Z,98801.00
2018-03-02T08:25:31.423Z,98797.19
2018-03-02T08:26:33.910Z,98796.83
2018-03-02T08:27:36.425Z,98807.16
2018-03-02T08:28:38.905Z,98795.47
2018-03-02T08:29:41.409Z,98783.42
2018-03-02T08:30:43.890Z,98797.27
2018-03-02T08:31:46.363Z,98792.62
2018-03-02T08:32:48.867Z,98788.86
2018-03-02T08:33:51.378Z,98779.44
2018-03-02T08:34:53.864Z,98781.95
2018-03-02T08:35:56.346Z,98783.66
2018-03-02T08:36:58.835Z,98778.58
2018-03-02T08:38:01.381Z,98779.98
2018-03-02T08:39:03.895Z,98781.56
2018-03-02T08:40:06.380Z,98782.29
2018-03-02T08:41:08.869Z,98783.39
2018-03-02T08:42:11.339Z,98783.27
2018-03-02T08:43:13.840Z,98783.81
2018-03-02T08:44:16.321Z,98782.94
2018-03-02T08:45:18.802Z,98791.05
2018-03-02T08:46:21.308Z,98781.67
2018-03-02T08:47:23.803Z,98783.84
2018-03-02T08:48:26.313Z,98784.69
2018-03-02T08:49:28.801Z,98786.55
2018-03-02T08:50:31.342Z,98780.37
2018-03-02T08:51:33.822Z,98786.27
2018-03-02T08:52:36.309Z,98784.21
2018-03-02T08:53:38.828Z,98778.25
2018-03-02T08:54:41.319Z,98781.09
2018-03-02T08:55:43.787Z,98778.42
2018-03-02T08:56:46.264Z,98774.29
2018-03-02T08:57:49.460Z,98773.31
2018-03-02T08:58:51.898Z,98773.86
2018-03-02T08:59:54.368Z,98767.77
2018-03-02T09:00:56.852Z,98766.58
2018-03-02T09:01:59.320Z,98767.69
2018-03-02T09:03:01.834Z,98769.00
2018-03-02T09:04:04.339Z,98766.37
2018-03-02T09:05:06.815Z,98763.53
2018-03-02T09:06:09.315Z,98763.53
2018-03-02T09:07:11.823Z,98765.36
2018-03-02T09:08:14.318Z,98763.02
2018-03-02T09:09:16.791Z,98766.23
2018-03-02T09:10:19.325Z,98765.61
2018-03-02T09:11:21.799Z,98769.41
2018-03-02T09:12:24.285Z,98763.89
2018-03-02T09:13:26.776Z,98769.60
2018-03-02T09:14:29.303Z,98763.73
2018-03-02T09:15:31.771Z,98763.30
2018-03-02T09:16:34.243Z,98769.80
2018-03-02T09:17:36.715Z,98768.38
2018-03-02T09:18:39.206Z,98770.17
2018-03-02T09:19:41.681Z,98772.84
2018-03-02T09:20:44.165Z,98772.80
2018-03-02T09:21:46.649Z,98777.74
2018-03-02T09:22:49.167Z,98767.65
2018-03-02T09:23:51.727Z,98771.75
2018-03-02T09:24:54.225Z,98772.99
2018-03-02T09:25:56.701Z,98768.67
2018-03-02T09:26:59.384Z,98773.73
2018-03-02T09:28:01.859Z,98772.89
2018-03-02T09:29:04.374Z,98774.66
2018-03-02T09:30:06.933Z,98768.27
2018-03-02T09:31:09.400Z,98768.45
2018-03-02T09:32:11.885Z,98776.31
2018-03-02T09:33:14.373Z,98776.06
2018-03-02T09:34:16.882Z,98775.19
2018-03-02T09:35:19.383Z,98769.61
2018-03-02T09:36:21.956Z,98760.64
2018-03-02T09:37:24.445Z,98769.97
2018-03-02T09:38:26.923Z,98772.38
2018-03-02T09:39:29.424Z,98767.79
2018-03-02T09:40:31.923Z,98777.28
2018-03-02T09:41:34.409Z,98772.03
2018-03-02T09:42:36.906Z,98775.61
2018-03-02T09:43:39.398Z,98779.50
2018-03-02T09:44:41.889Z,98778.30
2018-03-02T09:45:44.385Z,98780.25
2018-03-02T09:46:46.898Z,98785.67
2018-03-02T09:47:49.413Z,98785.80
2018-03-02T09:48:51.933Z,98783.95
2018-03-02T09:49:54.531Z,98777.59
2018-03-02T09:50:57.031Z,98781.23
2018-03-02T09:51:59.810Z,98776.45
2018-03-02T09:53:02.299Z,98777.16
2018-03-02T09:54:04.832Z,98772.34
2018-03-02T09:55:07.287Z,98775.97
2018-03-02T09:56:09.859Z,98769.78
2018-03-02T09:57:12.348Z,98774.41
2018-03-02T09:58:14.848Z,98770.78
2018-03-02T09:59:17.402Z,98773.17
2018-03-02T10:00:19.934Z,98779.52
2018-03-02T10:01:22.531Z,98785.28
2018-03-02T10:02:25.036Z,98782.10
2018-03-02T10:03:27.549Z,98782.00
2018-03-02T10:04:30.043Z,98785.80
2018-03-02T10:05:32.547Z,98782.17
2018-03-02T10:06:35.049Z,98784.62
2018-03-02T10:07:37.550Z,98784.58
2018-03-02T10:08:40.046Z,98783.39
2018-03-02T10:09:42.523Z,98777.74
2018-03-02T10:10:45.025Z,98781.55
2018-03-02T10:11:47.723Z,98781.61
2018-03-02T10:12:50.212Z,98782.87
2018-03-02T10:13:52.690Z,98773.87
2018-03-02T10:14:55.163Z,98777.29
2018-03-02T10:15:57.651Z,98777.69
2018-03-02T10:17:00.138Z,98779.33
2018-03-02T10:18:02.629Z,98777.30
2018-03-02T10:19:05.103Z,98778.87
2018-03-02T10:20:07.602Z,98783.38
2018-03-02T10:21:10.083Z,98786.68
2018-03-02T10:22:12.576Z,98787.83
2018-03-02T10:23:15.137Z,98780.59
2018-03-02T10:24:17.757Z,98782.80
2018-03-02T10:25:20.249Z,98792.52
2018-03-02T10:26:22.750Z,98786.73
2018-03-02T10:27:25.239Z,98788.72
2018-03-02T10:28:27.728Z,98787.16
2018-03-02T10:29:30.255Z,98789.58
2018-03-02T10:30:32.774Z,98785.80
2018-03-02T10:31:35.262Z,98782.00
2018-03-02T10:32:37.846Z,98787.52
2018-03-02T10:33:40.419Z,98794.64
2018-03-02T10:34:42.920Z,98787.98
2018-03-02T10:35:45.575Z,98784.19
2018-03-02T10:36:48.060Z,98787.63
2018-03-02T10:37:50.535Z,98788.45
2018-03-02T10:38:53.023Z,98783.29
2018-03-02T10:39:55.513Z,98784.23
2018-03-02T10:40:58.003Z,98786.97
2018-03-02T10:42:00.487Z,98786.14
2018-03-02T10:43:02.967Z,98782.46
2018-03-02T10:44:05.455Z,98783.33
2018-03-02T10:45:07.945Z,98786.04
2018-03-02T10:46:10.442Z,98787.67
2018-03-02T10:47:12.935Z,98785.47
2018-03-02T10:48:15.420Z,98789.55
2018-03-02T10:49:17.929Z,98790.30
2018-03-02T10:50:20.417Z,98803.09
2018-03-02T10:51:22.925Z,98797.45
2018-03-02T10:52:25.458Z,98793.59
2018-03-02T10:53:27.970Z,98798.10
2018-03-02T10:54:30.486Z,98798.50
2018-03-02T10:55:32.980Z,98793.77
2018-03-02T10:56:35.474Z,98795.07
2018-03-02T10:57:37.951Z,98796.41
2018-03-02T10:58:40.427Z,98790.88
2018-03-02T10:59:42.905Z,98783.98
2018-03-02T11:00:51.083Z,98787.34
2018-03-02T11:01:54.521Z,98787.09
2018-03-02T11:02:57.018Z,98785.74
2018-03-02T11:04:01.444Z,98791.34
2018-03-02T11:05:09.580Z,98796.20
2018-03-02T11:06:12.054Z,98790.81
2018-03-02T11:07:14.550Z,98796.10
2018-03-02T11:08:17.015Z,98799.97
2018-03-02T11:09:19.679Z,98796.10
2018-03-02T11:10:22.185Z,98797.98
2018-03-02T11:11:24.670Z,98794.27
2018-03-02T11:12:27.154Z,98798.57
2018-03-02T11:13:29.647Z,98798.90
2018-03-02T11:14:32.146Z,98801.18
2018-03-02T11:15:34.624Z,98800.93
2018-03-02T11:16:37.095Z,98796.20
2018-03-02T11:17:39.609Z,98802.13
2018-03-02T11:18:42.089Z,98796.30
2018-03-02T11:19:44.605Z,98798.20
2018-03-02T11:20:47.105Z,98795.80
2018-03-02T11:21:49.587Z,98797.13
2018-03-02T11:22:52.072Z,98790.20
2018-03-02T11:23:54.574Z,98789.37
2018-03-02T11:24:57.067Z,98791.03
2018-03-02T11:25:59.545Z,98787.70
2018-03-02T11:27:02.037Z,98788.95
2018-03-02T11:28:04.649Z,98788.71
2018-03-02T11:29:07.161Z,98784.56
2018-03-02T11:30:09.635Z,98784.31
2018-03-02T11:31:12.133Z,98788.00
2018-03-02T11:32:14.610Z,98785.38
2018-03-02T11:33:17.102Z,98784.98
2018-03-02T11:34:19.751Z,98791.02
2018-03-02T11:35:22.311Z,98792.03
2018-03-02T11:36:24.869Z,98792.86
2018-03-02T11:37:27.357Z,98790.02
2018-03-02T11:38:29.846Z,98792.86
2018-03-02T11:39:32.322Z,98789.87
2018-03-02T11:40:34.827Z,98791.70
2018-03-02T11:41:37.288Z,98786.94
2018-03-02T11:42:39.767Z,98786.02
2018-03-02T11:43:42.384Z,98781.75
2018-03-02T11:44:44.904Z,98781.84
2018-03-02T11:45:47.396Z,98776.74
2018-03-02T11:46:50.107Z,98771.55
2018-03-02T11:47:52.579Z,98775.59
2018-03-02T11:48:55.057Z,98762.00
2018-03-02T11:49:57.534Z,98767.25
2018-03-02T11:51:00.030Z,98765.67
2018-03-02T11:52:02.538Z,98772.53
2018-03-02T11:53:05.033Z,98770.06
2018-03-02T11:54:07.499Z,98770.58
2018-03-02T11:55:09.988Z,98779.09
2018-03-02T11:56:12.485Z,98774.30
2018-03-02T11:57:14.975Z,98772.43
2018-03-02T11:58:17.474Z,98772.97
2018-03-02T11:59:19.993Z,98768.27
2018-03-02T12:00:22.473Z,98763.94
2018-03-02T12:01:24.958Z,98754.66
2018-03-02T12:02:27.419Z,98756.77
2018-03-02T12:03:29.913Z,98753.62
2018-03-02T12:04:32.457Z,98747.43
2018-03-02T12:05:34.938Z,98757.39
2018-03-02T12:06:37.415Z,98755.95
2018-03-02T12:07:39.915Z,98761.02
2018-03-02T12:08:42.383Z,98752.66
2018-03-02T12:09:44.867Z,98754.45
2018-03-02T12:10:47.410Z,98751.05
2018-03-02T12:11:49.892Z,98746.98
2018-03-02T12:12:52.404Z,98757.64
2018-03-02T12:13:54.882Z,98755.34